Terminal Aerodrome Forecast
Issued by NWS

Home | Current Version | Previous Version | Text Only | Print | Product List | Glossary Off
Versions: 1 2 3 4 5 6 7 8 9 10 11 12 13 14 15 16 17

492
FTUS43 KTOP 300527
TAFFOE
TAF
KFOE 300527Z 3006/0106 27007KT P6SM BKN040
     FM301600 28015G24KT P6SM BKN040
     FM302300 27005KT P6SM SCT040=

USA.gov is the U.S. government's official web portal to all federal, state and local government web resources and services.